Angle, Utah
Current Conditions -  °F | °C
As of 6:53 PM on Wednesday 26 Nov 2014 (Local Time) from KBCE Reporting Station
Clear Clear  
Wind Chill: 30°   Ceiling: Unl
Heat Index: 34°   Visibility: 10mi
Dew Point: 19°   Wind: 5mph
Humidity: 54%   Direction: NA
Pressure: 30.49"   Gusts: NA
Location:  37.9601°N, 112.141°W
Report Text: KBCE 270153Z AUTO VRB04KT 10SM CLR 01/M07 A3049 RMK AO2 SLP317 T00111072
Loading
Personal Weather Stations






























Interactive Weather Map New forecast layout! Learn more

10-Day Weather Forecast

Advertisements
Track Severe Weather on mobile